Time;durP1;ratioP1;P1;durP2;ratioP2;P2;SDS_P1;SDS_P2;PMS_P1;PMS_P2;Temp;Humidity;BMP_temperature;BMP_pressure;BME280_temperature;BME280_humidity;BME280_pressure;Samples;Min_cycle;Max_cycle;Signal;HPM_P1;HPM_P2
2023/06/15 00:01:06;;;;;;;2.92;2.65;;;22.00;87.40;;;;;;5016199;28;20477;-83
2023/06/15 00:03:31;;;;;;;2.42;2.22;;;22.80;87.80;;;;;;5015927;28;20050;-83
2023/06/15 00:05:57;;;;;;;2.35;2.05;;;22.00;87.40;;;;;;5014688;28;20033;-83
2023/06/15 00:08:24;;;;;;;2.15;2.03;;;21.90;87.40;;;;;;5015613;28;20076;-84
2023/06/15 00:10:50;;;;;;;2.20;2.00;;;21.90;88.10;;;;;;5015723;28;20386;-84
2023/06/15 00:13:16;;;;;;;6.45;2.95;;;21.90;87.30;;;;;;5015023;28;20029;-83
2023/06/15 00:15:41;;;;;;;2.92;2.60;;;21.90;87.40;;;;;;5015183;28;20026;-83
2023/06/15 00:18:07;;;;;;;3.90;2.70;;;21.80;88.30;;;;;;5015590;28;20530;-83
2023/06/15 00:20:34;;;;;;;4.30;2.80;;;21.60;89.60;;;;;;5015496;28;20474;-83
2023/06/15 00:23:00;;;;;;;3.22;2.92;;;21.30;90.00;;;;;;5014989;28;20494;-83
2023/06/15 00:25:25;;;;;;;5.63;2.72;;;21.30;90.10;;;;;;5015147;28;20026;-83
2023/06/15 00:27:51;;;;;;;2.97;2.72;;;21.30;90.10;;;;;;5014407;28;20026;-83
2023/06/15 00:30:17;;;;;;;5.20;3.00;;;21.50;90.00;;;;;;5015181;28;20033;-83
2023/06/15 00:32:43;;;;;;;2.88;2.67;;;21.20;89.80;;;;;;5015131;28;20095;-83
2023/06/15 00:35:09;;;;;;;3.53;3.22;;;21.20;90.00;;;;;;5014741;28;20101;-83
2023/06/15 00:37:34;;;;;;;6.15;2.70;;;21.10;90.00;;;;;;5014270;28;20030;-83
2023/06/15 00:40:00;;;;;;;3.10;2.80;;;21.10;90.10;;;;;;5014793;28;20025;-83
2023/06/15 00:42:29;;;;;;;2.97;2.70;;;20.90;90.10;;;;;;5014464;28;20032;-83
2023/06/15 00:44:55;;;;;;;4.22;2.60;;;21.00;90.20;;;;;;5014630;28;20048;-83
2023/06/15 00:47:21;;;;;;;5.57;2.97;;;20.90;90.20;;;;;;5014537;28;20137;-83
2023/06/15 00:49:47;;;;;;;7.45;3.00;;;21.60;90.50;;;;;;5013867;28;20029;-83
2023/06/15 00:52:14;;;;;;;2.80;2.60;;;20.90;90.30;;;;;;5014976;28;20497;-83
2023/06/15 00:54:49;;;;;;;3.13;2.80;;;21.00;90.40;;;;;;5014417;28;20018;-83
2023/06/15 00:57:17;;;;;;;3.17;2.95;;;20.90;90.50;;;;;;5014307;28;20061;-82
2023/06/15 00:59:42;;;;;;;2.92;2.63;;;20.90;90.50;;;;;;5014714;28;20026;-83
2023/06/15 01:02:12;;;;;;;2.60;2.40;;;21.50;90.60;;;;;;5014263;28;20108;-83
2023/06/15 01:04:41;;;;;;;3.50;3.20;;;21.60;90.70;;;;;;5014826;28;20038;-84
2023/06/15 01:07:10;;;;;;;3.72;2.70;;;20.90;90.60;;;;;;5014697;28;20276;-83
2023/06/15 01:09:37;;;;;;;4.97;2.80;;;20.90;90.50;;;;;;5014777;28;20106;-83
2023/06/15 01:12:05;;;;;;;4.80;2.90;;;21.00;90.60;;;;;;5014034;28;20038;-84
2023/06/15 01:14:32;;;;;;;5.03;2.85;;;20.80;90.60;;;;;;5014446;28;20022;-83
2023/06/15 01:17:02;;;;;;;3.63;3.33;;;20.80;90.70;;;;;;5013690;28;20034;-83
2023/06/15 01:20:04;;;;;;;3.55;2.60;;;20.80;90.80;;;;;;5014433;28;20126;-84
2023/06/15 01:22:55;;;;;;;8.95;2.83;;;20.80;90.80;;;;;;5014040;28;20030;-83
2023/06/15 01:25:29;;;;;;;5.15;3.03;;;20.60;90.80;;;;;;5001699;28;20040;-83
2023/06/15 01:28:01;;;;;;;3.13;2.92;;;20.70;90.90;;;;;;5013707;28;20105;-83
2023/06/15 01:30:33;;;;;;;3.80;2.97;;;21.00;91.10;;;;;;5013510;28;20084;-83
2023/06/15 01:32:59;;;;;;;5.82;3.05;;;20.70;91.10;;;;;;5013703;28;20117;-83
2023/06/15 01:35:25;;;;;;;4.40;3.40;;;20.80;91.10;;;;;;5014163;28;20093;-83
2023/06/15 01:37:50;;;;;;;6.43;3.55;;;20.70;91.10;;;;;;5013270;28;20439;-82
2023/06/15 01:40:17;;;;;;;4.72;3.08;;;20.90;91.20;;;;;;5014041;28;20498;-83
2023/06/15 01:42:44;;;;;;;4.13;3.35;;;20.80;91.20;;;;;;5013903;28;20061;-84
2023/06/15 01:45:11;;;;;;;5.90;3.78;;;21.10;91.30;;;;;;5013159;28;20476;-84
2023/06/15 01:47:39;;;;;;;4.30;3.38;;;21.20;91.50;;;;;;5013404;28;20141;-83
2023/06/15 01:50:06;;;;;;;6.43;3.70;;;20.70;91.50;;;;;;5013561;28;20030;-84
2023/06/15 01:52:32;;;;;;;3.95;3.65;;;20.70;91.60;;;;;;5013202;28;20038;-84
2023/06/15 01:54:58;;;;;;;6.75;3.90;;;20.60;91.80;;;;;;5013410;28;20430;-84
2023/06/15 01:57:25;;;;;;;7.28;4.60;;;20.60;92.00;;;;;;5013713;28;20202;-84
2023/06/15 01:59:54;;;;;;;4.82;3.40;;;20.50;92.20;;;;;;5012666;28;20096;-84
2023/06/15 02:02:22;;;;;;;3.35;3.15;;;20.40;92.30;;;;;;5013281;28;20025;-84
2023/06/15 02:04:49;;;;;;;8.05;4.18;;;20.50;92.40;;;;;;5012877;28;20114;-84
2023/06/15 02:07:15;;;;;;;5.22;3.63;;;20.60;92.50;;;;;;5012581;28;20430;-84
2023/06/15 02:09:40;;;;;;;5.93;3.38;;;20.70;92.50;;;;;;5013262;28;20045;-83
2023/06/15 02:12:06;;;;;;;7.60;4.15;;;20.60;92.60;;;;;;5013297;28;20029;-83
2023/06/15 02:14:32;;;;;;;6.80;3.97;;;20.50;92.60;;;;;;5012775;28;20510;-84
2023/06/15 02:16:59;;;;;;;4.13;3.72;;;20.50;92.70;;;;;;5007683;28;20132;-84
2023/06/15 02:19:25;;;;;;;5.43;4.68;;;21.10;92.90;;;;;;5012786;28;20053;-84
2023/06/15 02:21:50;;;;;;;11.25;4.40;;;20.50;92.80;;;;;;5013164;28;20105;-84
2023/06/15 02:24:17;;;;;;;8.98;4.05;;;20.80;92.90;;;;;;5013239;28;20815;-84
2023/06/15 02:26:44;;;;;;;4.38;3.97;;;20.50;92.80;;;;;;5011721;28;20040;-84
2023/06/15 02:29:10;;;;;;;5.15;4.07;;;20.50;92.90;;;;;;5012911;28;20030;-84
2023/06/15 02:31:37;;;;;;;7.22;4.63;;;21.00;93.00;;;;;;5013261;28;20036;-84
2023/06/15 02:34:03;;;;;;;9.25;4.38;;;20.70;93.00;;;;;;5014133;28;20027;-84
2023/06/15 02:36:30;;;;;;;10.05;4.78;;;20.70;93.10;;;;;;5013177;28;20075;-84
2023/06/15 02:38:56;;;;;;;8.10;4.25;;;20.50;93.20;;;;;;5012849;28;20034;-83
2023/06/15 02:41:22;;;;;;;6.97;4.45;;;20.50;93.30;;;;;;5012279;28;20030;-84
2023/06/15 02:43:47;;;;;;;8.88;4.82;;;20.30;93.40;;;;;;5012390;28;20033;-84
2023/06/15 02:46:13;;;;;;;6.47;4.43;;;20.70;93.50;;;;;;5012353;28;20266;-84
2023/06/15 02:48:38;;;;;;;9.65;4.63;;;20.40;93.50;;;;;;5012306;28;20028;-83
2023/06/15 02:51:04;;;;;;;8.13;4.20;;;20.30;93.60;;;;;;5012645;28;20029;-84
2023/06/15 02:53:30;;;;;;;6.65;4.53;;;20.30;93.60;;;;;;5012906;28;20500;-84
2023/06/15 02:55:57;;;;;;;4.68;4.28;;;20.50;93.70;;;;;;5011743;28;20022;-83
2023/06/15 02:58:24;;;;;;;12.55;4.50;;;20.20;93.70;;;;;;5012687;28;20466;-83
2023/06/15 03:00:51;;;;;;;4.40;4.00;;;20.40;93.70;;;;;;5011882;28;20037;-83
2023/06/15 03:03:22;;;;;;;6.07;4.53;;;20.20;93.70;;;;;;5012072;28;20040;-83
2023/06/15 03:05:48;;;;;;;5.97;4.40;;;20.80;93.90;;;;;;5012563;28;20022;-84
2023/06/15 03:08:15;;;;;;;7.78;4.30;;;20.20;94.00;;;;;;5012595;28;20038;-83
2023/06/15 03:10:41;;;;;;;8.32;4.80;;;20.10;93.70;;;;;;5011569;28;20025;-84
2023/06/15 03:13:06;;;;;;;4.88;4.38;;;20.20;93.80;;;;;;5012445;28;20085;-83
2023/06/15 03:15:32;;;;;;;4.40;4.00;;;20.20;93.80;;;;;;5012304;28;20041;-84
2023/06/15 03:17:57;;;;;;;13.45;4.60;;;20.20;93.90;;;;;;5012279;28;20502;-83
2023/06/15 03:20:23;;;;;;;5.68;4.22;;;20.20;94.00;;;;;;5012730;28;20022;-84
2023/06/15 03:22:49;;;;;;;8.13;4.60;;;20.00;94.00;;;;;;5011565;28;20034;-84
2023/06/15 03:25:14;;;;;;;9.57;4.20;;;20.60;94.20;;;;;;5012314;28;20033;-83
2023/06/15 03:27:40;;;;;;;5.10;4.10;;;20.10;94.10;;;;;;5011807;28;20178;-84
2023/06/15 03:30:09;;;;;;;6.15;4.45;;;20.20;94.10;;;;;;5011680;28;20494;-83
2023/06/15 03:32:53;;;;;;;8.65;3.70;;;20.10;94.10;;;;;;5012184;28;20445;-84
2023/06/15 03:35:20;;;;;;;7.47;4.15;;;20.20;94.10;;;;;;5012357;28;20025;-84
2023/06/15 03:37:46;;;;;;;9.45;4.78;;;21.00;94.30;;;;;;5011530;28;20089;-84
2023/06/15 03:40:12;;;;;;;6.75;4.40;;;20.50;94.20;;;;;;5012565;28;20486;-83
2023/06/15 03:42:38;;;;;;;9.18;4.50;;;20.20;94.10;;;;;;5012466;28;20041;-84
2023/06/15 03:45:13;;;;;;;10.40;5.22;;;20.20;94.10;;;;;;5011202;28;20029;-84
2023/06/15 03:47:39;;;;;;;5.40;4.15;;;20.80;94.40;;;;;;5012136;28;20053;-84
2023/06/15 03:50:06;;;;;;;13.55;4.75;;;20.50;94.30;;;;;;5012253;28;20026;-84
2023/06/15 03:52:33;;;;;;;9.00;5.03;;;20.10;94.30;;;;;;5011417;28;20038;-83
2023/06/15 03:55:00;;;;;;;10.27;4.78;;;20.10;94.40;;;;;;5012064;28;20036;-83
2023/06/15 03:57:25;;;;;;;5.18;4.68;;;20.10;94.40;;;;;;5013421;28;20057;-84
2023/06/15 03:59:52;;;;;;;8.93;5.20;;;20.10;94.40;;;;;;5010928;28;20050;-83
2023/06/15 04:02:17;;;;;;;6.47;5.05;;;20.40;94.50;;;;;;5012436;28;20209;-83
2023/06/15 04:04:43;;;;;;;8.52;5.18;;;20.00;94.50;;;;;;5011666;28;20134;-84
2023/06/15 04:07:09;;;;;;;10.73;5.00;;;20.30;94.60;;;;;;5011886;28;20080;-83
2023/06/15 04:09:35;;;;;;;10.55;5.50;;;20.00;94.60;;;;;;5012347;28;20405;-82
2023/06/15 04:12:01;;;;;;;8.05;4.80;;;20.00;94.70;;;;;;5012741;28;20041;-84
2023/06/15 04:14:26;;;;;;;8.23;5.45;;;19.90;94.80;;;;;;5015685;28;20030;-83
2023/06/15 04:16:52;;;;;;;9.05;4.90;;;19.90;95.00;;;;;;5006732;28;20026;-83
2023/06/15 04:19:22;;;;;;;6.28;5.45;;;19.80;95.10;;;;;;5014258;28;20496;-84
2023/06/15 04:21:50;;;;;;;6.45;5.43;;;19.80;95.10;;;;;;5034714;28;20033;-83
2023/06/15 04:24:16;;;;;;;7.43;5.00;;;19.80;95.10;;;;;;5029017;28;20025;-84
2023/06/15 04:26:47;;;;;;;6.07;4.95;;;19.90;95.10;;;;;;5034362;28;20031;-83
2023/06/15 04:29:12;;;;;;;6.07;4.88;;;19.80;95.10;;;;;;4995701;28;20028;-84
2023/06/15 04:31:57;;;;;;;9.82;4.90;;;19.80;95.20;;;;;;4995628;28;20038;-84
2023/06/15 04:34:26;;;;;;;6.57;5.53;;;20.00;95.30;;;;;;5011630;28;20116;-83
2023/06/15 04:36:52;;;;;;;11.40;5.10;;;20.70;95.40;;;;;;5014701;28;20048;-83
2023/06/15 04:39:37;;;;;;;8.27;5.50;;;19.90;95.20;;;;;;5015107;28;20030;-84
2023/06/15 04:42:04;;;;;;;6.00;5.40;;;19.90;95.20;;;;;;5014227;28;20057;-84
2023/06/15 04:44:29;;;;;;;6.25;5.65;;;19.90;95.20;;;;;;5014757;28;20073;-84
2023/06/15 04:46:55;;;;;;;7.63;4.82;;;20.10;95.60;;;;;;5034127;28;20053;-84
2023/06/15 04:49:21;;;;;;;11.60;5.85;;;20.40;95.40;;;;;;5034346;28;20036;-84
2023/06/15 04:51:50;;;;;;;8.90;5.70;;;20.10;95.30;;;;;;5034612;28;20033;-83
2023/06/15 04:54:16;;;;;;;11.30;5.28;;;20.10;95.30;;;;;;5016156;28;20022;-84
2023/06/15 04:56:43;;;;;;;7.35;4.97;;;20.00;95.30;;;;;;5014465;28;20033;-84
2023/06/15 04:59:09;;;;;;;6.50;5.15;;;19.90;95.30;;;;;;5014660;28;20018;-84
2023/06/15 05:01:34;;;;;;;11.30;5.55;;;20.00;95.30;;;;;;5014128;28;20032;-84
2023/06/15 05:04:00;;;;;;;7.38;5.45;;;20.10;95.30;;;;;;5034353;28;20025;-84
2023/06/15 05:06:26;;;;;;;7.35;5.85;;;20.40;95.30;;;;;;5034020;28;20026;-84
2023/06/15 05:08:51;;;;;;;9.18;5.80;;;20.10;95.30;;;;;;5028225;28;20029;-84
2023/06/15 05:11:17;;;;;;;15.95;5.93;;;20.00;95.40;;;;;;5014018;28;20058;-84
2023/06/15 05:13:43;;;;;;;6.88;5.82;;;19.90;95.60;;;;;;5014114;28;20382;-84
2023/06/15 05:16:08;;;;;;;6.07;5.55;;;19.90;95.90;;;;;;5014115;28;20034;-84
2023/06/15 05:18:34;;;;;;;7.50;5.85;;;19.80;96.20;;;;;;5014203;28;20466;-83
2023/06/15 05:20:59;;;;;;;7.18;5.63;;;19.90;96.50;;;;;;5015987;28;20029;-84
2023/06/15 05:23:26;;;;;;;8.90;6.22;;;20.30;96.90;;;;;;5013586;28;20482;-84
2023/06/15 05:25:52;;;;;;;9.80;5.80;;;19.60;96.80;;;;;;5013806;28;20057;-84
2023/06/15 05:28:34;;;;;;;6.75;5.63;;;19.60;96.80;;;;;;5013910;28;20463;-84
2023/06/15 05:31:00;;;;;;;13.15;6.18;;;20.30;97.10;;;;;;5013113;28;20034;-84
2023/06/15 05:33:26;;;;;;;10.13;5.88;;;20.40;97.20;;;;;;5013736;28;20038;-84
2023/06/15 05:35:51;;;;;;;6.72;5.97;;;19.70;97.20;;;;;;5013358;28;20029;-84
2023/06/15 05:38:17;;;;;;;8.32;6.20;;;20.00;97.40;;;;;;5013414;28;20029;-84
2023/06/15 05:41:03;;;;;;;7.45;6.55;;;19.80;97.30;;;;;;5008700;28;20056;-84
2023/06/15 05:43:28;;;;;;;10.82;6.60;;;20.30;97.50;;;;;;5012613;28;20121;-84
2023/06/15 05:45:54;;;;;;;7.30;6.50;;;20.70;97.70;;;;;;5013299;28;20137;-82
2023/06/15 05:48:19;;;;;;;9.80;6.85;;;19.90;97.60;;;;;;5013777;28;20021;-82
2023/06/15 05:50:46;;;;;;;7.10;6.32;;;20.10;97.70;;;;;;5012252;28;20030;-81
2023/06/15 05:53:11;;;;;;;11.93;7.32;;;20.00;97.50;;;;;;5008433;28;20029;-84
2023/06/15 05:55:37;;;;;;;11.40;6.80;;;19.80;97.50;;;;;;5004416;28;20086;-82
2023/06/15 05:58:03;;;;;;;11.30;6.90;;;20.00;97.60;;;;;;5005583;28;20030;-83
2023/06/15 06:00:30;;;;;;;10.50;7.00;;;19.80;97.70;;;;;;5012690;28;20024;-83
2023/06/15 06:02:56;;;;;;;15.88;7.28;;;20.30;97.90;;;;;;5012653;28;20073;-83
2023/06/15 06:05:23;;;;;;;9.75;6.55;;;20.20;97.90;;;;;;5011291;28;20465;-83
2023/06/15 06:07:49;;;;;;;11.88;6.82;;;20.10;97.90;;;;;;5007776;28;20148;-82
2023/06/15 06:10:18;;;;;;;10.80;6.53;;;20.20;97.80;;;;;;5011737;28;20486;-82
2023/06/15 06:12:43;;;;;;;15.20;6.82;;;20.20;97.80;;;;;;5009059;28;20088;-83
2023/06/15 06:15:09;;;;;;;8.43;6.70;;;20.30;97.80;;;;;;5006113;28;20478;-83
2023/06/15 06:17:34;;;;;;;11.98;7.20;;;20.30;97.60;;;;;;5001576;28;20093;-85
2023/06/15 06:20:00;;;;;;;16.73;6.88;;;20.30;97.40;;;;;;5005947;28;20050;-88
2023/06/15 06:22:25;;;;;;;10.95;7.10;;;20.40;97.20;;;;;;5002767;28;20054;-88
2023/06/15 06:27:37;;;;;;;15.30;6.95;;;20.50;97.00;;;;;;5006122;28;20388;-87
2023/06/15 06:30:03;;;;;;;10.82;7.13;;;20.70;97.20;;;;;;5004766;28;20030;-87
2023/06/15 06:32:28;;;;;;;9.70;7.20;;;20.50;97.20;;;;;;5002122;28;20036;-87
2023/06/15 06:34:54;;;;;;;12.77;7.38;;;20.70;97.30;;;;;;5005981;28;20409;-87
2023/06/15 06:37:22;;;;;;;9.93;7.55;;;20.50;97.40;;;;;;5014005;28;20378;-88
2023/06/15 06:39:47;;;;;;;13.85;7.63;;;20.60;97.40;;;;;;5012375;28;20033;-88
2023/06/15 06:42:13;;;;;;;13.90;8.10;;;20.60;97.40;;;;;;5013255;28;20390;-88
2023/06/15 06:44:42;;;;;;;9.57;7.25;;;21.10;97.60;;;;;;5010617;28;20034;-87
2023/06/15 06:47:08;;;;;;;8.07;7.22;;;21.00;97.60;;;;;;5012938;28;20049;-88
2023/06/15 06:49:34;;;;;;;10.25;7.65;;;21.00;97.60;;;;;;5012548;28;20374;-87
2023/06/15 06:51:59;;;;;;;9.48;7.18;;;20.70;97.60;;;;;;5012966;28;20042;-88
2023/06/15 06:54:40;;;;;;;14.10;7.32;;;21.40;97.50;;;;;;5012171;28;20049;-88
2023/06/15 06:57:06;;;;;;;13.45;7.72;;;21.60;97.60;;;;;;5013401;28;20061;-88
2023/06/15 06:59:31;;;;;;;7.47;6.88;;;20.80;97.50;;;;;;5012742;28;20057;-84
2023/06/15 07:01:57;;;;;;;10.88;7.97;;;20.80;97.50;;;;;;5002458;28;20450;-86
2023/06/15 07:04:22;;;;;;;9.15;6.40;;;20.80;97.40;;;;;;5003212;28;20069;-86
2023/06/15 07:07:06;;;;;;;15.85;7.50;;;20.90;97.40;;;;;;5002098;28;20030;-86
2023/06/15 07:09:31;;;;;;;11.77;7.75;;;21.20;97.10;;;;;;5005149;28;20398;-84
2023/06/15 07:11:57;;;;;;;10.65;7.47;;;21.20;97.30;;;;;;5002623;28;20041;-85
2023/06/15 07:14:23;;;;;;;16.55;8.45;;;21.20;96.80;;;;;;5000800;28;20467;-84
2023/06/15 07:16:48;;;;;;;10.10;7.40;;;21.10;97.10;;;;;;4993394;28;20450;-84
2023/06/15 07:19:14;;;;;;;14.20;7.05;;;21.10;97.30;;;;;;4993051;28;20479;-85
2023/06/15 07:21:40;;;;;;;11.85;7.55;;;21.10;96.80;;;;;;4998275;28;20023;-87
2023/06/15 07:24:05;;;;;;;11.30;7.47;;;21.20;96.60;;;;;;4999543;28;20146;-85
2023/06/15 07:26:31;;;;;;;15.07;7.40;;;21.30;96.90;;;;;;4991966;28;20521;-86
2023/06/15 07:28:56;;;;;;;11.57;8.07;;;21.20;96.40;;;;;;4989908;28;20031;-86
2023/06/15 07:31:22;;;;;;;8.18;7.25;;;21.30;96.30;;;;;;4992099;28;20030;-86
2023/06/15 07:33:48;;;;;;;9.27;7.00;;;21.30;96.20;;;;;;4995070;28;20027;-83
2023/06/15 07:36:13;;;;;;;10.82;6.43;;;21.40;96.30;;;;;;5016822;28;20040;-83
2023/06/15 07:38:41;;;;;;;9.43;6.80;;;21.40;96.30;;;;;;5010121;28;20029;-83
2023/06/15 07:41:12;;;;;;;12.65;6.75;;;21.40;95.80;;;;;;5010313;28;20483;-86
2023/06/15 07:43:38;;;;;;;15.27;6.93;;;21.50;95.90;;;;;;5008248;28;20037;-85
2023/06/15 07:46:16;;;;;;;9.43;6.40;;;22.00;95.60;;;;;;4992098;28;20046;-83
2023/06/15 07:48:41;;;;;;;9.20;6.63;;;21.80;95.10;;;;;;4995937;28;20113;-83
2023/06/15 07:51:07;;;;;;;13.90;6.75;;;21.70;94.50;;;;;;4995046;28;20101;-85
2023/06/15 07:53:32;;;;;;;13.32;6.18;;;21.80;94.90;;;;;;4996690;28;20111;-85
2023/06/15 07:55:58;;;;;;;33.65;8.93;;;22.50;95.00;;;;;;4995948;28;20026;-86
2023/06/15 07:58:23;;;;;;;12.40;6.63;;;21.90;94.40;;;;;;4995750;28;20381;-86
2023/06/15 08:00:49;;;;;;;9.30;7.00;;;22.10;94.50;;;;;;4996408;28;20019;-85
2023/06/15 08:03:15;;;;;;;8.95;5.75;;;21.90;94.70;;;;;;4996076;28;20141;-85
2023/06/15 08:05:40;;;;;;;9.43;5.55;;;22.00;94.00;;;;;;4994045;28;20029;-86
2023/06/15 08:08:06;;;;;;;10.75;5.57;;;22.00;93.70;;;;;;4996884;28;20536;-84
2023/06/15 08:10:32;;;;;;;5.95;5.35;;;22.10;93.50;;;;;;4999588;28;20033;-85
2023/06/15 08:12:58;;;;;;;16.42;5.78;;;22.10;93.70;;;;;;4993950;28;20027;-85
2023/06/15 08:15:23;;;;;;;8.00;6.05;;;22.10;93.10;;;;;;4994895;28;20109;-86
2023/06/15 08:17:49;;;;;;;6.22;5.20;;;22.20;93.10;;;;;;4994150;28;20113;-85
2023/06/15 08:20:15;;;;;;;10.50;5.72;;;22.10;92.90;;;;;;4995459;28;20031;-85
2023/06/15 08:22:41;;;;;;;12.02;5.47;;;22.20;93.10;;;;;;4995587;28;20050;-84
2023/06/15 08:25:08;;;;;;;9.93;4.50;;;22.20;92.40;;;;;;4995375;28;20471;-84
2023/06/15 08:27:34;;;;;;;7.05;3.72;;;22.30;92.00;;;;;;4995577;28;20041;-85
2023/06/15 08:30:00;;;;;;;8.70;4.22;;;22.40;91.00;;;;;;4995576;28;20034;-86
2023/06/15 08:32:25;;;;;;;12.05;4.25;;;22.40;91.20;;;;;;4993844;28;20554;-84
2023/06/15 08:34:52;;;;;;;5.72;4.13;;;22.40;91.10;;;;;;4994869;28;20027;-87
2023/06/15 08:37:20;;;;;;;6.70;4.50;;;22.50;91.40;;;;;;4995601;28;20034;-85
2023/06/15 08:39:46;;;;;;;8.85;4.32;;;22.50;90.80;;;;;;5008075;28;20041;-89
2023/06/15 08:42:12;;;;;;;5.90;3.72;;;22.50;90.50;;;;;;5015235;28;20099;-86
2023/06/15 08:44:40;;;;;;;6.40;3.95;;;22.80;91.00;;;;;;5015547;28;20026;-85
2023/06/15 08:47:06;;;;;;;5.65;4.03;;;22.80;90.60;;;;;;5010345;28;20116;-85
2023/06/15 08:49:32;;;;;;;10.32;4.93;;;22.70;90.70;;;;;;5008329;28;20053;-88
2023/06/15 08:52:05;;;;;;;5.72;4.28;;;22.70;91.00;;;;;;5016275;28;20037;-89
2023/06/15 08:54:31;;;;;;;9.02;4.55;;;22.80;91.00;;;;;;5009990;28;20087;-88
2023/06/15 08:57:06;;;;;;;8.35;4.25;;;23.00;90.80;;;;;;5015650;28;20025;-87
2023/06/15 08:59:31;;;;;;;6.90;4.47;;;22.80;90.90;;;;;;5015171;28;20032;-85
2023/06/15 09:02:00;;;;;;;6.30;4.97;;;23.40;91.10;;;;;;5019673;28;20026;-85
2023/06/15 09:04:28;;;;;;;10.43;4.38;;;23.30;91.10;;;;;;5017746;28;20033;-86
2023/06/15 09:07:18;;;;;;;7.55;5.00;;;23.50;91.20;;;;;;5013405;28;20397;-86
2023/06/15 09:10:16;;;;;;;13.60;5.25;;;22.90;91.10;;;;;;5011458;28;20030;-86
2023/06/15 09:12:53;;;;;;;17.60;5.70;;;23.00;90.70;;;;;;5021809;28;20485;-85
2023/06/15 09:15:24;;;;;;;8.38;4.82;;;23.00;90.20;;;;;;5011637;28;20026;-86
2023/06/15 09:18:13;;;;;;;9.10;4.28;;;23.00;90.00;;;;;;5020516;28;20109;-86
2023/06/15 09:20:58;;;;;;;7.90;3.80;;;23.00;90.30;;;;;;5019314;28;20010;-86
2023/06/15 09:23:23;;;;;;;10.60;4.72;;;23.00;90.20;;;;;;5020650;28;20026;-86
2023/06/15 09:26:06;;;;;;;8.10;4.40;;;23.00;89.70;;;;;;5011244;28;20036;-85
2023/06/15 09:28:31;;;;;;;8.85;4.10;;;23.10;89.90;;;;;;5013285;28;20026;-89
2023/06/15 09:30:59;;;;;;;12.38;4.10;;;23.30;90.00;;;;;;5013174;28;20532;-86
2023/06/15 09:33:36;;;;;;;7.30;4.32;;;23.20;90.10;;;;;;5017943;28;20121;-87
2023/06/15 09:36:03;;;;;;;8.48;4.22;;;23.20;90.20;;;;;;5011552;28;20577;-86
2023/06/15 09:38:30;;;;;;;6.45;4.07;;;23.20;90.50;;;;;;5012581;28;20101;-86
2023/06/15 09:40:56;;;;;;;5.80;3.50;;;23.30;88.30;;;;;;5027304;28;20473;-86
2023/06/15 09:43:21;;;;;;;7.95;4.10;;;23.40;89.00;;;;;;5033378;28;20117;-87
2023/06/15 09:45:52;;;;;;;6.90;4.20;;;23.40;87.70;;;;;;5033635;28;20045;-86
2023/06/15 09:48:17;;;;;;;;;;;23.40;87.80;;;;;;5032692;28;20026;-86
2023/06/15 09:50:43;;;;;;;12.20;5.13;;;23.40;88.10;;;;;;5030844;28;19912;-85
2023/06/15 09:53:12;;;;;;;8.40;4.50;;;23.30;88.30;;;;;;5031606;28;20157;-86
2023/06/15 09:55:48;;;;;;;5.10;4.00;;;23.30;88.80;;;;;;5047392;22;20057;-85
2023/06/15 09:58:13;;;;;;;5.88;4.13;;;23.40;89.20;;;;;;5031501;28;20048;-85
2023/06/15 10:00:41;;;;;;;7.38;4.40;;;23.50;88.50;;;;;;5029604;23;20053;-85
2023/06/15 10:03:12;;;;;;;6.22;4.07;;;23.50;88.40;;;;;;5032920;28;20055;-86
2023/06/15 10:05:43;;;;;;;8.10;4.30;;;23.50;87.40;;;;;;5033338;28;20026;-85
2023/06/15 10:08:11;;;;;;;7.82;3.97;;;23.50;87.20;;;;;;5033691;28;20484;-86
2023/06/15 10:10:38;;;;;;;7.32;4.55;;;23.50;87.50;;;;;;5032622;28;20366;-86
2023/06/15 10:13:07;;;;;;;11.88;4.55;;;23.50;87.60;;;;;;5033184;28;20037;-86
2023/06/15 10:15:35;;;;;;;6.70;4.47;;;23.50;87.50;;;;;;5033831;28;20022;-86
2023/06/15 10:18:03;;;;;;;6.70;5.00;;;23.50;88.00;;;;;;5032480;28;20026;-85
2023/06/15 10:20:30;;;;;;;15.48;4.47;;;23.50;86.90;;;;;;5032900;28;20107;-86
2023/06/15 10:23:45;;;;;;;8.48;4.20;;;23.60;87.20;;;;;;5031980;28;20418;-86
2023/06/15 10:26:36;;;;;;;7.43;4.22;;;23.60;87.50;;;;;;5032121;28;20029;-86
2023/06/15 10:29:26;;;;;;;10.90;4.53;;;23.50;88.10;;;;;;5032809;28;20021;-86
2023/06/15 10:32:45;;;;;;;5.40;5.00;;;24.50;87.90;;;;;;5031693;28;20079;-86
2023/06/15 10:35:44;;;;;;;7.57;4.47;;;23.80;87.50;;;;;;5032072;28;20029;-86
2023/06/15 10:38:19;;;;;;;5.50;4.85;;;23.90;88.10;;;;;;5032248;28;20446;-85
2023/06/15 10:40:57;;;;;;;7.72;4.07;;;23.90;88.20;;;;;;5030133;28;20030;-86
2023/06/15 10:43:26;;;;;;;4.93;4.43;;;24.20;87.80;;;;;;5031300;28;20030;-83
2023/06/15 10:45:52;;;;;;;9.60;4.55;;;23.90;88.80;;;;;;5030865;28;20108;-85
2023/06/15 10:48:29;;;;;;;8.80;3.47;;;23.90;88.40;;;;;;5030200;28;20136;-85
2023/06/15 10:51:06;;;;;;;8.48;5.18;;;23.90;88.70;;;;;;5017787;28;20389;-84
2023/06/15 10:53:38;;;;;;;12.38;4.88;;;23.90;88.80;;;;;;5020822;28;20029;-85
2023/06/15 10:56:13;;;;;;;9.23;3.80;;;23.90;88.30;;;;;;5031715;28;20029;-85
2023/06/15 10:58:53;;;;;;;10.38;4.55;;;23.90;88.70;;;;;;5032049;28;20132;-88
2023/06/15 11:01:26;;;;;;;;;;;24.00;88.50;;;;;;5029793;28;20033;-88
2023/06/15 11:03:54;;;;;;;8.77;4.80;;;23.90;89.10;;;;;;5030155;28;19909;-86
2023/06/15 11:06:29;;;;;;;3.97;3.63;;;24.00;88.60;;;;;;5030507;28;20358;-87
2023/06/15 11:09:02;;;;;;;9.48;4.50;;;24.00;88.80;;;;;;5029469;28;20026;-87
2023/06/15 11:11:49;;;;;;;5.32;4.32;;;23.80;88.50;;;;;;5030128;28;20182;-81
2023/06/15 11:14:18;;;;;;;7.70;4.15;;;24.00;88.60;;;;;;5017016;23;20057;-86
2023/06/15 11:16:43;;;;;;;6.80;4.43;;;24.20;88.80;;;;;;4991680;28;20026;-85
2023/06/15 11:19:12;;;;;;;9.20;4.03;;;24.20;88.00;;;;;;4991977;28;20266;-83
2023/06/15 11:21:44;;;;;;;4.50;4.10;;;24.40;87.60;;;;;;4992797;28;20101;-85
2023/06/15 11:24:13;;;;;;;9.75;4.60;;;24.40;86.90;;;;;;5003420;28;20029;-83
2023/06/15 11:26:40;;;;;;;11.38;3.63;;;24.10;86.10;;;;;;5007746;28;20034;-84
2023/06/15 11:29:09;;;;;;;4.82;3.78;;;24.20;87.10;;;;;;4999799;28;20050;-84
2023/06/15 11:31:43;;;;;;;8.68;4.50;;;24.10;87.10;;;;;;5004634;28;20038;-84
2023/06/15 11:34:10;;;;;;;8.00;4.60;;;24.20;87.50;;;;;;5007053;28;20092;-84
2023/06/15 11:36:38;;;;;;;7.60;4.22;;;24.50;87.00;;;;;;5005373;28;20542;-85
2023/06/15 11:39:04;;;;;;;4.80;4.10;;;23.70;86.40;;;;;;5000745;28;20037;-84
2023/06/15 11:41:30;;;;;;;13.43;3.53;;;24.60;86.90;;;;;;4995528;28;20431;-84
2023/06/15 11:43:57;;;;;;;6.88;3.83;;;24.10;86.00;;;;;;4995591;28;20031;-86
2023/06/15 11:46:23;;;;;;;24.27;4.47;;;24.10;85.90;;;;;;4981823;28;20031;-85
2023/06/15 11:48:56;;;;;;;8.07;4.07;;;24.10;85.50;;;;;;4975696;28;20054;-85
2023/06/15 11:51:22;;;;;;;8.48;4.05;;;24.10;85.10;;;;;;4976971;28;20113;-85
2023/06/15 11:53:54;;;;;;;10.52;4.10;;;24.10;87.00;;;;;;4976850;28;20482;-85
2023/06/15 11:56:20;;;;;;;5.45;3.90;;;24.20;87.20;;;;;;4976220;28;20491;-85
2023/06/15 11:58:50;;;;;;;6.40;3.65;;;24.20;86.40;;;;;;4976612;28;20030;-85
2023/06/15 12:01:31;;;;;;;4.32;3.90;;;24.30;86.20;;;;;;4976726;28;20457;-85
2023/06/15 12:03:56;;;;;;;;;;;24.30;85.50;;;;;;4975665;28;20058;-85
2023/06/15 12:06:22;;;;;;;6.22;3.05;;;24.70;82.00;;;;;;4976686;28;19968;-85
2023/06/15 12:09:07;;;;;;;4.75;3.20;;;24.90;82.00;;;;;;4976442;28;20035;-86
2023/06/15 12:11:33;;;;;;;3.90;3.45;;;24.90;82.70;;;;;;4995155;28;20052;-85
2023/06/15 12:14:23;;;;;;;3.17;2.50;;;24.40;83.70;;;;;;4995895;28;20046;-85
2023/06/15 12:16:51;;;;;;;4.40;2.80;;;24.50;82.40;;;;;;4995563;28;20038;-85
2023/06/15 12:19:36;;;;;;;6.05;3.45;;;25.10;81.40;;;;;;4994736;28;20085;-86
2023/06/15 12:22:02;;;;;;;4.10;3.25;;;25.10;81.70;;;;;;4996530;28;20026;-86
2023/06/15 12:24:28;;;;;;;4.35;3.80;;;24.60;80.60;;;;;;4997598;28;20034;-85
2023/06/15 12:27:15;;;;;;;3.85;3.00;;;25.20;80.70;;;;;;4995466;28;20018;-86
2023/06/15 12:29:41;;;;;;;6.35;2.85;;;25.10;80.00;;;;;;4995659;28;20030;-85
2023/06/15 12:32:24;;;;;;;5.32;3.17;;;24.70;80.40;;;;;;4994786;28;20039;-86
2023/06/15 12:34:51;;;;;;;3.95;2.72;;;24.80;79.90;;;;;;4994082;28;20022;-86
2023/06/15 12:37:17;;;;;;;3.53;2.53;;;24.60;78.90;;;;;;5003418;28;20025;-85
2023/06/15 12:39:59;;;;;;;4.78;2.70;;;25.00;79.80;;;;;;5022213;28;20025;-84
2023/06/15 12:42:24;;;;;;;8.57;3.25;;;24.90;80.10;;;;;;5015690;23;20054;-83
2023/06/15 12:44:50;;;;;;;8.43;2.90;;;25.10;81.30;;;;;;4994147;28;20018;-83
2023/06/15 12:47:16;;;;;;;6.80;3.35;;;25.10;80.50;;;;;;5014059;28;20036;-84
2023/06/15 12:49:59;;;;;;;3.33;3.03;;;25.20;79.70;;;;;;5014053;28;20030;-83
2023/06/15 12:52:25;;;;;;;5.05;2.92;;;25.30;80.40;;;;;;5013950;28;20056;-83
2023/06/15 12:54:50;;;;;;;3.67;2.95;;;25.20;79.50;;;;;;5013199;28;20466;-83
2023/06/15 12:57:34;;;;;;;9.85;3.25;;;25.20;79.30;;;;;;5013508;28;20032;-84